Welcome to Northern Hawkes Bay. New Zealand.
PWS Header
      nz Flag



Hit Counter


W3C Valid W3C Valid logo


    Wairoa

Select any of the Stations below to visit their websites.










Historic Data from Weather Underground
Select the location of interest below. Wairoa is the default. Please have patience, this Data is slow to load in.
Northern Hawkes Bay Historical Data
Daily Summary for April 19, 2017 Units:  Metric    English   Both
« Previous Day
Next Day »
Daily Weekly Monthly Yearly Custom
  High: Low: Average:
Temperature: 21.8 °C 10.1 °C 14.6 °C
Dew Point: 13.0 °C 9.9 °C 11.5 °C
Humidity: 99% 52% 84%
Wind Speed: 9.7km/h 0.0km/h 1.5km/h
Wind Gust: 15.8km/h - -
Wind- - WSW
Pressure: 1022.6 hPa 1015.5 hPa -
Precipitation: 0.0 mm    
Historical Graphs
 
 
Tabular Data for April 19, 2017
Time Temperature Dew Point Pressure Wind Wind Speed Wind Gust Humidity Rainfall Rate (Hourly) solar
00:03 12.6 °C 11.5 °C 1022.2 hPa Calm   5.0 km/h 93% 0.0 mm 0 W/m2
00:08 12.5 °C 11.4 °C 1022.2 hPa NNW 2.6 km/h 9.7 km/h 93% 0.0 mm 0 W/m2
00:13 12.5 °C 11.6 °C 1022.2 hPa Calm   9.7 km/h 94% 0.0 mm 0 W/m2
00:18 12.5 °C 11.6 °C 1022.2 hPa Calm   9.7 km/h 94% 0.0 mm 0 W/m2
00:23 12.4 °C 11.4 °C 1022.6 hPa Calm     94% 0.0 mm 0 W/m2
00:28 12.4 °C 11.4 °C 1022.2 hPa Calm     94% 0.0 mm 0 W/m2
00:33 12.3 °C 11.4 °C 1022.2 hPa Calm     94% 0.0 mm 0 W/m2
00:38 12.3 °C 11.5 °C 1022.2 hPa Calm     95% 0.0 mm 0 W/m2
00:43 12.2 °C 11.4 °C 1022.2 hPa Calm     95% 0.0 mm 0 W/m2
00:48 12.2 °C 11.4 °C 1022.2 hPa Calm     95% 0.0 mm 0 W/m2
00:53 12.1 °C 11.3 °C 1022.2 hPa Calm     95% 0.0 mm 0 W/m2
00:58 12.0 °C 11.2 °C 1022.2 hPa Calm     95% 0.0 mm 0 W/m2
01:03 11.9 °C 11.3 °C 1022.2 hPa Calm     96% 0.0 mm 0 W/m2
01:08 11.8 °C 11.2 °C 1022.2 hPa Calm     96% 0.0 mm 0 W/m2
01:13 11.8 °C 11.2 °C 1022.2 hPa Calm     96% 0.0 mm 0 W/m2
01:18 11.6 °C 11.0 °C 1022.2 hPa Calm     96% 0.0 mm 0 W/m2
01:23 11.6 °C 11.0 °C 1022.2 hPa Calm     96% 0.0 mm 0 W/m2
01:28 11.7 °C 11.2 °C 1022.2 hPa Calm     97% 0.0 mm 0 W/m2
01:33 11.7 °C 11.2 °C 1022.2 hPa Calm     97% 0.0 mm 0 W/m2
01:38 11.7 °C 11.4 °C 1022.2 hPa Calm     98% 0.0 mm 0 W/m2
01:43 11.7 °C 11.4 °C 1022.2 hPa Calm     98% 0.0 mm 0 W/m2
01:48 11.8 °C 11.5 °C 1022.2 hPa Calm     98% 0.0 mm 0 W/m2
01:53 11.8 °C 11.5 °C 1021.9 hPa Calm     98% 0.0 mm 0 W/m2
01:59 11.7 °C 11.4 °C 1021.9 hPa Calm     98% 0.0 mm 0 W/m2
02:04 11.7 °C 11.4 °C 1021.9 hPa Calm     98% 0.0 mm 0 W/m2
02:09 11.7 °C 11.4 °C 1021.9 hPa Calm     98% 0.0 mm 0 W/m2
02:14 11.7 °C 11.4 °C 1021.9 hPa Calm     98% 0.0 mm 0 W/m2
02:19 11.7 °C 11.4 °C 1021.9 hPa Calm     98% 0.0 mm 0 W/m2
02:24 11.6 °C 11.3 °C 1021.9 hPa Calm     98% 0.0 mm 0 W/m2
02:29 11.6 °C 11.3 °C 1021.6 hPa Calm     98% 0.0 mm 0 W/m2
02:34 11.6 °C 11.3 °C 1021.6 hPa Calm     98% 0.0 mm 0 W/m2
02:39 11.6 °C 11.3 °C 1021.6 hPa Calm     98% 0.0 mm 0 W/m2
02:44 11.6 °C 11.3 °C 1021.6 hPa Calm     98% 0.0 mm 0 W/m2
02:49 11.6 °C 11.3 °C 1021.6 hPa Calm     98% 0.0 mm 0 W/m2
02:54 11.6 °C 11.3 °C 1021.6 hPa Calm     98% 0.0 mm 0 W/m2
02:59 11.5 °C 11.2 °C 1021.6 hPa Calm     98% 0.0 mm 0 W/m2
03:04 11.5 °C 11.2 °C 1021.2 hPa Calm     98% 0.0 mm 0 W/m2
03:09 11.4 °C 11.1 °C 1021.2 hPa Calm     98% 0.0 mm 0 W/m2
03:14 11.3 °C 11.0 °C 1021.2 hPa Calm     98% 0.0 mm 0 W/m2
03:19 11.2 °C 10.9 °C 1021.2 hPa Calm     98% 0.0 mm 0 W/m2
03:24 11.0 °C 10.7 °C 1021.2 hPa NW 1.1 km/h 3.5 km/h 98% 0.0 mm 0 W/m2
03:29 11.0 °C 10.7 °C 1021.2 hPa Calm   3.5 km/h 98% 0.0 mm 0 W/m2
03:34 10.9 °C 10.8 °C 1021.2 hPa Calm   3.5 km/h 99% 0.0 mm 0 W/m2
03:39 10.9 °C 10.8 °C 1020.9 hPa Calm     99% 0.0 mm 0 W/m2
03:44 10.9 °C 10.8 °C 1020.9 hPa Calm     99% 0.0 mm 0 W/m2
03:49 10.8 °C 10.7 °C 1021.2 hPa Calm     99% 0.0 mm 0 W/m2
03:54 10.8 °C 10.7 °C 1020.9 hPa Calm     99% 0.0 mm 0 W/m2
03:59 10.9 °C 10.8 °C 1020.9 hPa Calm     99% 0.0 mm 0 W/m2
04:04 11.0 °C 10.7 °C 1020.9 hPa Calm     98% 0.0 mm 0 W/m2
04:09 11.0 °C 10.7 °C 1020.9 hPa Calm     98% 0.0 mm 0 W/m2
04:14 11.0 °C 10.7 °C 1020.9 hPa Calm     98% 0.0 mm 0 W/m2
04:19 11.1 °C 10.8 °C 1020.9 hPa Calm   7.2 km/h 98% 0.0 mm 0 W/m2
04:36 11.0 °C 10.7 °C 1020.9 hPa Calm   6.1 km/h 98% 0.0 mm 0 W/m2
04:41 10.9 °C 10.8 °C 1020.9 hPa Calm   1.1 km/h 99% 0.0 mm 0 W/m2
04:46 10.8 °C 10.7 °C 1020.9 hPa Calm     99% 0.0 mm 0 W/m2
04:51 10.8 °C 10.7 °C 1020.9 hPa Calm     99% 0.0 mm 0 W/m2
04:56 10.7 °C 10.6 °C 1020.9 hPa Calm     99% 0.0 mm 0 W/m2
05:02 10.7 °C 10.6 °C 1020.9 hPa Calm     99% 0.0 mm 0 W/m2
05:07 10.7 °C 10.6 °C 1020.9 hPa Calm     99% 0.0 mm 0 W/m2
05:12 10.7 °C 10.6 °C 1020.9 hPa NW 2.6 km/h 6.1 km/h 99% 0.0 mm 0 W/m2
05:17 10.8 °C 10.7 °C 1020.9 hPa Calm   7.2 km/h 99% 0.0 mm 0 W/m2
05:22 10.8 °C 10.7 °C 1020.9 hPa Calm   7.2 km/h 99% 0.0 mm 0 W/m2
05:27 10.8 °C 10.7 °C 1020.9 hPa Calm   2.6 km/h 99% 0.0 mm 0 W/m2
05:32 10.7 °C 10.6 °C 1020.9 hPa Calm     99% 0.0 mm 0 W/m2
05:37 10.6 °C 10.4 °C 1020.9 hPa Calm     99% 0.0 mm 0 W/m2
05:42 10.6 °C 10.4 °C 1020.9 hPa Calm     99% 0.0 mm 0 W/m2
05:47 10.5 °C 10.3 °C 1020.9 hPa Calm     99% 0.0 mm 0 W/m2
05:52 10.4 °C 10.3 °C 1020.9 hPa NW 2.6 km/h 5.0 km/h 99% 0.0 mm 0 W/m2
05:57 10.4 °C 10.3 °C 1020.5 hPa Calm   5.0 km/h 99% 0.0 mm 0 W/m2
06:02 10.4 °C 10.3 °C 1020.9 hPa Calm   5.0 km/h 99% 0.0 mm 0 W/m2
06:07 10.3 °C 10.2 °C 1020.5 hPa Calm     99% 0.0 mm 0 W/m2
06:12 10.3 °C 10.2 °C 1020.9 hPa Calm     99% 0.0 mm 0 W/m2
06:17 10.3 °C 10.2 °C 1020.9 hPa Calm   7.2 km/h 99% 0.0 mm 0 W/m2
06:22 10.2 °C 10.1 °C 1020.9 hPa Calm   7.2 km/h 99% 0.0 mm 0 W/m2
06:28 10.1 °C 9.9 °C 1020.9 hPa NW 1.1 km/h 6.1 km/h 99% 0.0 mm 0 W/m2
06:33 10.1 °C 9.9 °C 1020.9 hPa Calm   6.1 km/h 99% 0.0 mm 0 W/m2
06:38 10.1 °C 9.9 °C 1020.9 hPa Calm   6.1 km/h 99% 0.0 mm 0 W/m2
06:43 10.1 °C 9.9 °C 1020.9 hPa Calm     99% 0.0 mm 3 W/m2
06:48 10.1 °C 9.9 °C 1020.9 hPa Calm   3.5 km/h 99% 0.0 mm 4 W/m2
06:53 10.1 °C 9.9 °C 1020.9 hPa Calm   3.5 km/h 99% 0.0 mm 6 W/m2
06:58 10.1 °C 9.9 °C 1020.9 hPa Calm   3.5 km/h 99% 0.0 mm 9 W/m2
07:03 10.1 °C 9.9 °C 1020.9 hPa Calm     99% 0.0 mm 13 W/m2
07:08 10.1 °C 9.9 °C 1020.9 hPa Calm   5.0 km/h 99% 0.0 mm 15 W/m2
07:13 10.1 °C 9.9 °C 1020.9 hPa Calm   5.0 km/h 99% 0.0 mm 20 W/m2
07:18 10.2 °C 10.1 °C 1020.9 hPa Calm     99% 0.0 mm 40 W/m2
07:23 10.3 °C 10.2 °C 1020.9 hPa Calm     99% 0.0 mm 46 W/m2
07:28 10.6 °C 10.4 °C 1020.9 hPa NNW 3.5 km/h 6.1 km/h 99% 0.0 mm 116 W/m2
07:33 11.0 °C 10.7 °C 1020.9 hPa NW 5.0 km/h 8.7 km/h 98% 0.0 mm 143 W/m2
07:38 11.3 °C 11.0 °C 1020.5 hPa NW 7.2 km/h 8.7 km/h 98% 0.0 mm 156 W/m2
07:43 11.5 °C 11.2 °C 1020.9 hPa NW 7.2 km/h 9.7 km/h 98% 0.0 mm 171 W/m2
07:48 11.7 °C 11.4 °C 1020.9 hPa NW 5.0 km/h 9.7 km/h 98% 0.0 mm 181 W/m2
07:53 11.8 °C 11.5 °C 1020.9 hPa NW 9.7 km/h 12.2 km/h 98% 0.0 mm 190 W/m2
07:58 12.0 °C 11.6 °C 1020.9 hPa NNW 5.0 km/h 12.2 km/h 97% 0.0 mm 202 W/m2
08:03 12.1 °C 11.7 °C 1020.9 hPa NW 5.0 km/h 14.8 km/h 97% 0.0 mm 214 W/m2
08:08 12.3 °C 11.7 °C 1020.9 hPa NNW 6.1 km/h 14.8 km/h 96% 0.0 mm 235 W/m2
08:13 12.4 °C 11.4 °C 1020.9 hPa NNW 5.0 km/h 15.8 km/h 94% 0.0 mm 248 W/m2
08:18 12.8 °C 11.7 °C 1021.2 hPa Calm   15.8 km/h 93% 0.0 mm 261 W/m2
08:23 13.2 °C 11.9 °C 1021.2 hPa NNW 3.5 km/h 9.7 km/h 92% 0.0 mm 273 W/m2
08:28 13.2 °C 11.6 °C 1021.2 hPa NNW 7.2 km/h 11.1 km/h 90% 0.0 mm 283 W/m2
08:33 13.2 °C 11.4 °C 1021.2 hPa NNW 7.2 km/h 11.1 km/h 89% 0.0 mm 290 W/m2
08:38 13.3 °C 11.6 °C 1021.2 hPa NW 1.1 km/h 11.1 km/h 89% 0.0 mm 298 W/m2
08:43 13.6 °C 11.7 °C 1021.2 hPa NNW 6.1 km/h 11.1 km/h 88% 0.0 mm 308 W/m2
08:48 13.7 °C 11.8 °C 1021.2 hPa NNW 3.5 km/h 11.1 km/h 88% 0.0 mm 328 W/m2
08:53 13.9 °C 11.9 °C 1021.2 hPa NNW 5.0 km/h 11.1 km/h 88% 0.0 mm 344 W/m2
08:58 14.3 °C 12.2 °C 1021.2 hPa Calm   11.1 km/h 87% 0.0 mm 342 W/m2
09:03 14.5 °C 12.2 °C 1021.2 hPa Calm   11.1 km/h 86% 0.0 mm 347 W/m2
09:08 14.8 °C 12.3 °C 1021.2 hPa Calm   8.7 km/h 85% 0.0 mm 356 W/m2
09:13 15.5 °C 12.8 °C 1021.2 hPa North 1.1 km/h 7.2 km/h 84% 0.0 mm 365 W/m2
09:18 15.5 °C 12.4 °C 1021.2 hPa Calm   7.2 km/h 82% 0.0 mm 370 W/m2
09:23 15.8 °C 12.2 °C 1020.9 hPa North 5.0 km/h 11.1 km/h 79% 0.0 mm 372 W/m2
09:28 15.9 °C 12.3 °C 1021.2 hPa Calm   11.1 km/h 79% 0.0 mm 370 W/m2
09:33 15.9 °C 12.1 °C 1020.9 hPa NNW 2.6 km/h 11.1 km/h 78% 0.0 mm 201 W/m2
09:38 16.0 °C 12.2 °C 1020.9 hPa NNW 3.5 km/h 11.1 km/h 78% 0.0 mm 84 W/m2
09:43 15.9 °C 12.3 °C 1020.9 hPa NNW 2.6 km/h 11.1 km/h 79% 0.0 mm 74 W/m2
09:48 16.2 °C 12.2 °C 1020.9 hPa NNW 8.7 km/h 9.7 km/h 77% 0.0 mm 66 W/m2
09:53 16.4 °C 11.8 °C 1020.9 hPa NNW 1.1 km/h 9.7 km/h 74% 0.0 mm 61 W/m2
09:58 16.7 °C 11.8 °C 1020.9 hPa Calm   9.7 km/h 73% 0.0 mm 59 W/m2
10:03 17.0 °C 11.9 °C 1020.9 hPa NNE 1.1 km/h 11.1 km/h 72% 0.0 mm 59 W/m2
10:08 16.9 °C 11.8 °C 1020.9 hPa North 1.1 km/h 11.1 km/h 72% 0.0 mm 60 W/m2
10:13 17.2 °C 11.9 °C 1020.9 hPa North 2.6 km/h 11.1 km/h 71% 0.0 mm 61 W/m2
10:18 17.2 °C 12.1 °C 1020.9 hPa NNW 1.1 km/h 11.1 km/h 72% 0.0 mm 69 W/m2
10:23 17.5 °C 11.6 °C 1020.9 hPa NNW 1.1 km/h 8.7 km/h 68% 0.0 mm 72 W/m2
10:28 18.2 °C 12.4 °C 1020.5 hPa North 5.0 km/h 8.7 km/h 69% 0.0 mm 133 W/m2
10:33 17.8 °C 11.4 °C 1020.5 hPa Calm   9.7 km/h 66% 0.0 mm 86 W/m2
10:38 18.7 °C 12.9 °C 1020.5 hPa NNW 5.0 km/h 9.7 km/h 69% 0.0 mm 102 W/m2
10:43 18.2 °C 11.8 °C 1020.2 hPa North 1.1 km/h 8.7 km/h 66% 0.0 mm 429 W/m2
10:48 18.1 °C 11.7 °C 1020.2 hPa North 2.6 km/h 7.2 km/h 66% 0.0 mm 408 W/m2
10:53 18.3 °C 11.8 °C 1020.2 hPa Calm   7.2 km/h 66% 0.0 mm 109 W/m2
10:58 18.9 °C 12.7 °C 1020.2 hPa Calm   5.0 km/h 67% 0.0 mm 143 W/m2
11:03 18.5 °C 11.6 °C 1020.2 hPa Calm   9.7 km/h 64% 0.0 mm 273 W/m2
11:08 18.6 °C 11.9 °C 1020.2 hPa Calm   9.7 km/h 65% 0.0 mm 82 W/m2
11:13 19.0 °C 11.6 °C 1020.2 hPa Calm   11.1 km/h 62% 0.0 mm 479 W/m2
11:18 18.6 °C 11.9 °C 1019.9 hPa Calm   11.1 km/h 65% 0.0 mm 253 W/m2
11:23 18.8 °C 12.1 °C 1019.9 hPa Calm     65% 0.0 mm 480 W/m2
11:28 19.2 °C 11.8 °C 1019.5 hPa Calm     62% 0.0 mm 474 W/m2
11:33 19.7 °C 12.0 °C 1019.9 hPa Calm     61% 0.0 mm 482 W/m2
11:38 19.5 °C 11.6 °C 1019.5 hPa Calm     60% 0.0 mm 475 W/m2
11:43 18.8 °C 12.1 °C 1019.5 hPa South 6.1 km/h 11.1 km/h 65% 0.0 mm 515 W/m2
11:48 18.7 °C 12.0 °C 1019.5 hPa SSW 3.5 km/h 11.1 km/h 65% 0.0 mm 513 W/m2
11:53 18.7 °C 12.0 °C 1019.5 hPa SSW 6.1 km/h 11.1 km/h 65% 0.0 mm 529 W/m2
11:58 18.5 °C 11.8 °C 1019.5 hPa South 7.2 km/h 11.1 km/h 65% 0.0 mm 492 W/m2
12:03 18.4 °C 11.9 °C 1019.2 hPa South 6.1 km/h 11.1 km/h 66% 0.0 mm 490 W/m2
12:08 18.4 °C 12.2 °C 1018.8 hPa SSE 6.1 km/h 11.1 km/h 67% 0.0 mm 489 W/m2
12:13 18.9 °C 12.7 °C 1018.8 hPa SSE 5.0 km/h 11.1 km/h 67% 0.0 mm 467 W/m2
12:18 18.7 °C 12.2 °C 1018.8 hPa SSE 5.0 km/h 8.7 km/h 66% 0.0 mm 472 W/m2
12:23 19.2 °C 12.2 °C 1018.8 hPa SSE 3.5 km/h 8.7 km/h 64% 0.0 mm 475 W/m2
12:28 19.6 °C 12.6 °C 1018.5 hPa SE 3.5 km/h 7.2 km/h 64% 0.0 mm 460 W/m2
12:33 19.9 °C 12.7 °C 1018.8 hPa SE 3.5 km/h 8.7 km/h 63% 0.0 mm 460 W/m2
12:38 20.1 °C 12.8 °C 1018.5 hPa SE 6.1 km/h 8.7 km/h 63% 0.0 mm 456 W/m2
12:43 19.9 °C 12.7 °C 1018.5 hPa SSE 2.6 km/h 8.7 km/h 63% 0.0 mm 452 W/m2
12:48 20.1 °C 12.6 °C 1018.2 hPa SSE 8.7 km/h 11.1 km/h 62% 0.0 mm 448 W/m2
12:53 19.7 °C 12.7 °C 1018.2 hPa SSE 2.6 km/h 11.1 km/h 64% 0.0 mm 440 W/m2
12:58 20.1 °C 12.6 °C 1018.2 hPa Calm   11.1 km/h 62% 0.0 mm 435 W/m2
13:03 20.1 °C 12.6 °C 1018.2 hPa SSE 5.0 km/h 11.1 km/h 62% 0.0 mm 346 W/m2
13:08 20.3 °C 12.8 °C 1018.2 hPa SSE 5.0 km/h 11.1 km/h 62% 0.0 mm 352 W/m2
13:13 20.3 °C 12.8 °C 1018.2 hPa SSE 2.6 km/h 9.7 km/h 62% 0.0 mm 417 W/m2
13:18 20.8 °C 13.0 °C 1017.8 hPa SSE 3.5 km/h 8.7 km/h 61% 0.0 mm 408 W/m2
13:23 20.7 °C 12.4 °C 1017.8 hPa South 3.5 km/h 9.7 km/h 59% 0.0 mm 407 W/m2
13:28 20.5 °C 12.2 °C 1017.8 hPa SSE 7.2 km/h 11.1 km/h 59% 0.0 mm 391 W/m2
13:34 20.2 °C 11.7 °C 1017.8 hPa SSE 8.7 km/h 12.2 km/h 58% 0.0 mm 376 W/m2
13:39 19.9 °C 11.9 °C 1017.5 hPa South 1.1 km/h 12.2 km/h 60% 0.0 mm 160 W/m2
13:44 20.2 °C 11.9 °C 1017.5 hPa South 3.5 km/h 12.2 km/h 59% 0.0 mm 102 W/m2
13:49 20.7 °C 11.9 °C 1017.5 hPa SSE 2.6 km/h 9.7 km/h 57% 0.0 mm 358 W/m2
13:54 20.8 °C 11.4 °C 1017.5 hPa SE 2.6 km/h 8.7 km/h 55% 0.0 mm 337 W/m2
13:59 20.3 °C 10.4 °C 1017.5 hPa SE 7.2 km/h 11.1 km/h 53% 0.0 mm 287 W/m2
14:04 20.3 °C 11.5 °C 1017.2 hPa SSE 5.0 km/h 11.1 km/h 57% 0.0 mm 328 W/m2
14:09 20.6 °C 11.5 °C 1017.5 hPa SSE 3.5 km/h 11.1 km/h 56% 0.0 mm 319 W/m2
14:14 20.5 °C 11.2 °C 1017.2 hPa SSE 2.6 km/h 9.7 km/h 55% 0.0 mm 60 W/m2
14:19 21.1 °C 11.2 °C 1017.2 hPa SSE 2.6 km/h 8.7 km/h 53% 0.0 mm 90 W/m2
14:24 21.0 °C 11.1 °C 1017.2 hPa SE 1.1 km/h 8.7 km/h 53% 0.0 mm 90 W/m2
14:29 21.2 °C 11.3 °C 1017.2 hPa Calm   8.7 km/h 53% 0.0 mm 57 W/m2
14:34 21.8 °C 11.5 °C 1017.2 hPa SE 5.0 km/h 8.7 km/h 52% 0.0 mm 97 W/m2
14:39 21.0 °C 11.1 °C 1016.8 hPa South 7.2 km/h 12.2 km/h 53% 0.0 mm 65 W/m2
14:44 20.9 °C 11.8 °C 1016.8 hPa South 1.1 km/h 12.2 km/h 56% 0.0 mm 58 W/m2
14:50 21.4 °C 11.4 °C 1016.8 hPa SSE 2.6 km/h 12.2 km/h 53% 0.0 mm 59 W/m2
14:55 21.0 °C 11.1 °C 1016.8 hPa SSE 2.6 km/h 8.7 km/h 53% 0.0 mm 60 W/m2
15:00 21.2 °C 11.3 °C 1016.8 hPa Calm   8.7 km/h 53% 0.0 mm 62 W/m2
15:05 21.6 °C 11.6 °C 1016.8 hPa Calm   7.2 km/h 53% 0.0 mm 127 W/m2
15:10 21.2 °C 11.3 °C 1016.5 hPa Calm   8.7 km/h 53% 0.0 mm 199 W/m2
15:16 21.2 °C 11.3 °C 1016.5 hPa SE 1.1 km/h 8.7 km/h 53% 0.0 mm 223 W/m2
15:21 21.0 °C 11.1 °C 1016.5 hPa SE 6.1 km/h 9.7 km/h 53% 0.0 mm 217 W/m2
15:26 21.0 °C 11.3 °C 1016.5 hPa SE 3.5 km/h 9.7 km/h 54% 0.0 mm 207 W/m2
15:31 21.2 °C 11.6 °C 1016.5 hPa ESE 2.6 km/h 8.7 km/h 54% 0.0 mm 197 W/m2
15:36 21.1 °C 11.2 °C 1016.5 hPa SE 6.1 km/h 9.7 km/h 53% 0.0 mm 187 W/m2
15:41 20.8 °C 11.7 °C 1016.5 hPa SE 3.5 km/h 9.7 km/h 56% 0.0 mm 174 W/m2
15:46 20.4 °C 11.6 °C 1016.1 hPa SE 2.6 km/h 9.7 km/h 57% 0.0 mm 138 W/m2
15:51 20.6 °C 12.1 °C 1016.1 hPa SE 2.6 km/h 8.7 km/h 58% 0.0 mm 149 W/m2
15:56 21.5 °C 12.1 °C 1016.1 hPa Calm   6.1 km/h 55% 0.0 mm 138 W/m2
16:01 21.7 °C 12.0 °C 1015.8 hPa Calm   6.1 km/h 54% 0.0 mm 126 W/m2
16:06 21.5 °C 11.6 °C 1016.1 hPa SE 5.0 km/h 7.2 km/h 53% 0.0 mm 115 W/m2
16:11 20.6 °C 11.3 °C 1016.1 hPa ESE 1.1 km/h 7.2 km/h 55% 0.0 mm 60 W/m2
16:17 19.4 °C 11.4 °C 1016.1 hPa Calm   6.1 km/h 60% 0.0 mm 95 W/m2
16:22 18.7 °C 12.0 °C 1015.8 hPa SSE 5.0 km/h 11.1 km/h 65% 0.0 mm 50 W/m2
16:27 17.6 °C 11.6 °C 1016.1 hPa Calm   11.1 km/h 68% 0.0 mm 53 W/m2
16:32 17.3 °C 11.8 °C 1015.8 hPa Calm   5.0 km/h 70% 0.0 mm 48 W/m2
16:37 17.0 °C 11.7 °C 1015.8 hPa Calm   3.5 km/h 71% 0.0 mm 51 W/m2
16:42 16.8 °C 11.7 °C 1015.8 hPa Calm   2.6 km/h 72% 0.0 mm 37 W/m2
16:47 16.6 °C 11.7 °C 1015.5 hPa Calm   2.6 km/h 73% 0.0 mm 31 W/m2
16:52 16.7 °C 11.8 °C 1015.8 hPa Calm   2.6 km/h 73% 0.0 mm 31 W/m2
16:57 16.7 °C 11.8 °C 1015.8 hPa Calm   1.1 km/h 73% 0.0 mm 29 W/m2
17:02 16.5 °C 11.7 °C 1015.8 hPa Calm   1.1 km/h 73% 0.0 mm 28 W/m2
17:07 16.3 °C 11.4 °C 1015.8 hPa Calm   1.1 km/h 73% 0.0 mm 29 W/m2
17:12 16.3 °C 11.4 °C 1015.8 hPa Calm   1.1 km/h 73% 0.0 mm 20 W/m2
17:17 16.1 °C 11.4 °C 1016.1 hPa Calm     74% 0.0 mm 12 W/m2
17:22 16.0 °C 11.4 °C 1015.8 hPa Calm     74% 0.0 mm 7 W/m2
17:27 15.8 °C 11.6 °C 1016.1 hPa Calm     76% 0.0 mm 5 W/m2
17:32 15.7 °C 11.5 °C 1016.1 hPa Calm     76% 0.0 mm 3 W/m2
17:37 15.7 °C 11.7 °C 1016.1 hPa Calm     77% 0.0 mm 1 W/m2
17:42 15.6 °C 11.6 °C 1016.1 hPa Calm     77% 0.0 mm 0 W/m2
17:47 15.5 °C 11.7 °C 1016.1 hPa Calm     78% 0.0 mm 0 W/m2
17:52 15.5 °C 11.9 °C 1016.1 hPa Calm     79% 0.0 mm 0 W/m2
17:57 15.4 °C 12.0 °C 1016.1 hPa Calm     80% 0.0 mm 0 W/m2
18:02 15.3 °C 11.9 °C 1016.1 hPa Calm     80% 0.0 mm 0 W/m2
18:07 15.3 °C 11.9 °C 1016.1 hPa Calm     80% 0.0 mm 0 W/m2
18:12 15.2 °C 11.9 °C 1016.5 hPa Calm     81% 0.0 mm 0 W/m2
18:17 15.3 °C 12.1 °C 1016.5 hPa Calm     81% 0.0 mm 0 W/m2
18:22 15.3 °C 12.3 °C 1016.5 hPa Calm   2.6 km/h 82% 0.0 mm 0 W/m2
18:27 15.3 °C 12.3 °C 1016.5 hPa Calm   2.6 km/h 82% 0.0 mm 0 W/m2
18:32 15.3 °C 12.3 °C 1016.5 hPa Calm   1.1 km/h 82% 0.0 mm 0 W/m2
18:37 15.4 °C 12.6 °C 1016.8 hPa Calm     83% 0.0 mm 0 W/m2
18:42 15.4 °C 12.6 °C 1016.8 hPa Calm     83% 0.0 mm 0 W/m2
18:47 15.3 °C 12.3 °C 1016.8 hPa Calm     82% 0.0 mm 0 W/m2
18:52 15.3 °C 12.1 °C 1016.8 hPa Calm     81% 0.0 mm 0 W/m2
18:57 15.3 °C 12.1 °C 1016.8 hPa Calm     81% 0.0 mm 0 W/m2
19:02 15.3 °C 11.9 °C 1016.8 hPa Calm     80% 0.0 mm 0 W/m2
19:07 15.3 °C 11.7 °C 1016.8 hPa Calm     79% 0.0 mm 0 W/m2
19:12 15.3 °C 11.9 °C 1016.8 hPa Calm   1.1 km/h 80% 0.0 mm 0 W/m2
19:17 15.3 °C 12.3 °C 1016.8 hPa Calm   2.6 km/h 82% 0.0 mm 0 W/m2
19:22 15.2 °C 12.3 °C 1016.8 hPa Calm   2.6 km/h 83% 0.0 mm 0 W/m2
19:27 15.0 °C 12.5 °C 1016.8 hPa Calm   3.5 km/h 85% 0.0 mm 0 W/m2
19:32 14.9 °C 12.6 °C 1016.8 hPa Calm   3.5 km/h 86% 0.0 mm 0 W/m2
19:37 14.7 °C 12.6 °C 1016.8 hPa NNW 5.0 km/h 6.1 km/h 87% 0.0 mm 0 W/m2
19:42 14.6 °C 12.7 °C 1016.8 hPa Calm   7.2 km/h 88% 0.0 mm 0 W/m2
19:47 14.4 °C 12.4 °C 1016.8 hPa Calm   7.2 km/h 88% 0.0 mm 0 W/m2
19:52 14.2 °C 12.4 °C 1016.8 hPa Calm   3.5 km/h 89% 0.0 mm 0 W/m2
19:57 14.1 °C 12.3 °C 1016.8 hPa Calm   2.6 km/h 89% 0.0 mm 0 W/m2
20:02 13.9 °C 12.3 °C 1016.8 hPa Calm     90% 0.0 mm 0 W/m2
20:07 13.8 °C 12.2 °C 1016.8 hPa Calm     90% 0.0 mm 0 W/m2
20:12 13.7 °C 12.3 °C 1016.8 hPa Calm     91% 0.0 mm 0 W/m2
20:17 13.6 °C 12.2 °C 1016.8 hPa Calm     91% 0.0 mm 0 W/m2
20:22 13.6 °C 12.2 °C 1017.2 hPa NW 2.6 km/h 8.7 km/h 91% 0.0 mm 0 W/m2
20:27 13.6 °C 12.5 °C 1016.8 hPa Calm   8.7 km/h 93% 0.0 mm 0 W/m2
20:32 13.5 °C 12.6 °C 1016.8 hPa Calm   8.7 km/h 94% 0.0 mm 0 W/m2
20:37 13.5 °C 12.6 °C 1016.8 hPa Calm   8.7 km/h 94% 0.0 mm 0 W/m2
20:42 13.4 °C 12.6 °C 1016.8 hPa NNW 2.6 km/h 7.2 km/h 95% 0.0 mm 0 W/m2
20:47 13.4 °C 12.6 °C 1016.8 hPa Calm   7.2 km/h 95% 0.0 mm 0 W/m2
20:52 13.3 °C 12.5 °C 1016.8 hPa Calm   6.1 km/h 95% 0.0 mm 0 W/m2
20:57 13.2 °C 12.4 °C 1016.8 hPa Calm   6.1 km/h 95% 0.0 mm 0 W/m2
21:02 13.1 °C 12.3 °C 1016.8 hPa Calm   5.0 km/h 95% 0.0 mm 0 W/m2
21:07 12.9 °C 12.1 °C 1016.8 hPa Calm   1.1 km/h 95% 0.0 mm 0 W/m2
21:12 12.8 °C 12.0 °C 1016.8 hPa North 2.6 km/h 6.1 km/h 95% 0.0 mm 0 W/m2
21:17 12.7 °C 11.9 °C 1016.8 hPa Calm   6.1 km/h 95% 0.0 mm 0 W/m2
21:22 12.7 °C 12.1 °C 1016.8 hPa NNW 2.6 km/h 6.1 km/h 96% 0.0 mm 0 W/m2
21:27 12.6 °C 12.0 °C 1016.8 hPa NNW 1.1 km/h 6.1 km/h 96% 0.0 mm 0 W/m2
21:32 12.6 °C 12.0 °C 1017.2 hPa Calm   5.0 km/h 96% 0.0 mm 0 W/m2
21:37 12.5 °C 12.1 °C 1016.8 hPa Calm   5.0 km/h 97% 0.0 mm 0 W/m2
21:42 12.4 °C 11.9 °C 1016.8 hPa Calm   5.0 km/h 97% 0.0 mm 0 W/m2
21:47 12.4 °C 11.9 °C 1017.2 hPa NNW 2.6 km/h 6.1 km/h 97% 0.0 mm 0 W/m2
21:52 12.4 °C 11.9 °C 1017.2 hPa Calm   6.1 km/h 97% 0.0 mm 0 W/m2
21:57 12.3 °C 11.8 °C 1016.8 hPa Calm   5.0 km/h 97% 0.0 mm 0 W/m2
22:02 12.3 °C 11.8 °C 1017.2 hPa Calm   3.5 km/h 97% 0.0 mm 0 W/m2
22:07 12.2 °C 11.7 °C 1016.8 hPa NE 1.1 km/h 3.5 km/h 97% 0.0 mm 0 W/m2
22:12 12.2 °C 11.7 °C 1017.2 hPa Calm   3.5 km/h 97% 0.0 mm 0 W/m2
22:17 12.2 °C 11.7 °C 1017.2 hPa NNW 2.6 km/h 6.1 km/h 97% 0.0 mm 0 W/m2
22:22 12.2 °C 11.7 °C 1016.8 hPa Calm   7.2 km/h 97% 0.0 mm 0 W/m2
22:27 12.1 °C 11.7 °C 1017.2 hPa NNW 1.1 km/h 7.2 km/h 97% 0.0 mm 0 W/m2
22:32 12.0 °C 11.6 °C 1017.2 hPa NNW 1.1 km/h 6.1 km/h 97% 0.0 mm 0 W/m2
22:37 11.9 °C 11.6 °C 1016.8 hPa NW 1.1 km/h 6.1 km/h 98% 0.0 mm 0 W/m2
22:42 11.9 °C 11.6 °C 1016.8 hPa NW 2.6 km/h 5.0 km/h 98% 0.0 mm 0 W/m2
22:47 11.9 °C 11.6 °C 1016.8 hPa NW 3.5 km/h 6.1 km/h 98% 0.0 mm 0 W/m2
22:52 11.8 °C 11.5 °C 1016.8 hPa NNW 3.5 km/h 6.1 km/h 98% 0.0 mm 0 W/m2
22:57 11.6 °C 11.3 °C 1016.8 hPa NNW 2.6 km/h 6.1 km/h 98% 0.0 mm 0 W/m2
23:02 11.7 °C 11.4 °C 1016.8 hPa NNW 1.1 km/h 7.2 km/h 98% 0.0 mm 0 W/m2
23:07 11.5 °C 11.2 °C 1016.8 hPa NNW 2.6 km/h 7.2 km/h 98% 0.0 mm 0 W/m2
23:12 11.4 °C 11.1 °C 1016.8 hPa NW 3.5 km/h 7.2 km/h 98% 0.0 mm 0 W/m2
23:17 11.3 °C 11.0 °C 1016.8 hPa NW 3.5 km/h 7.2 km/h 98% 0.0 mm 0 W/m2
23:22 11.3 °C 11.0 °C 1016.8 hPa NW 3.5 km/h 7.2 km/h 98% 0.0 mm 0 W/m2
23:27 11.3 °C 11.0 °C 1016.8 hPa NW 3.5 km/h 8.7 km/h 98% 0.0 mm 0 W/m2
23:32 11.3 °C 11.0 °C 1017.2 hPa NNW 2.6 km/h 9.7 km/h 98% 0.0 mm 0 W/m2
23:37 11.3 °C 11.0 °C 1016.8 hPa NNW 3.5 km/h 9.7 km/h 98% 0.0 mm 0 W/m2
23:42 11.4 °C 11.1 °C 1016.8 hPa Calm   9.7 km/h 98% 0.0 mm 0 W/m2
23:47 11.4 °C 11.1 °C 1016.8 hPa North 3.5 km/h 9.7 km/h 98% 0.0 mm 0 W/m2
23:52 11.4 °C 11.1 °C 1016.8 hPa Calm   9.7 km/h 98% 0.0 mm 0 W/m2
23:57 11.5 °C 11.2 °C 1016.8 hPa North 3.5 km/h 9.7 km/h 98% 0.0 mm 0 W/m2
Northern Hawkes Bay. New Zealand Historic Data
Compliments of Weather Underground - 2.25 mb